Virtual United States Air Force

 METAR AND TAF INFORMATION
METAR FOR NSTU
ADDS - METARS form results

(0205 UTC 24 May 2018)
Data provider http://aviationweather.gov/adds/metars/
 
METAR text: NSTU 240152Z 10010KT 12SM SCT023 30/27 A2981 RMK SLP097 T03030271
Conditions at: NSTU (PAGO PAGO , WS) observed 0152 UTC 24 May 2018
Temperature: 30.3°C (87°F)
Dewpoint: 27.1°C (81°F) [RH = 83%]
Pressure (altimeter): 29.81 inches Hg (1009.6 mb)
[Sea-level pressure: 1009.7 mb]
Winds: from the E (100 degrees) at 12 MPH (10 knots; 5.2 m/s)
Visibility: 12 miles (19 km)
Ceiling: at least 12,000 feet AGL
Clouds: scattered clouds at 2300 feet AGL
Weather: no significant weather observed at this time

Forecast for: NSTU (PAGO PAGO , WS)
Text: NSTU 232332Z 2400/2424 09010KT P6SM SCT020 SCT040
Forecast period: 0000 UTC 24 May 2018 to 0000 UTC 25 May 2018
Forecast type: FROM: standard forecast or significant change
Winds: from the E (90 degrees) at 12 MPH (10 knots; 5.2 m/s)
Visibility: 6 or more miles (10+ km)
Clouds: scattered clouds at 2000 feet AGL
scattered clouds at 4000 feet AGL
Weather: no significant weather forecast for this period
Forecast for: NSTU (PAGO PAGO , WS)
Text: NSTU 232332Z 2400/2424 09010KT P6SM SCT020 SCT040
Forecast period: 0000 UTC 24 May 2018 to 0000 UTC 25 May 2018
Forecast type: FROM: standard forecast or significant change
Winds: from the E (90 degrees) at 12 MPH (10 knots; 5.2 m/s)
Visibility: 6 or more miles (10+ km)
Clouds: scattered clouds at 2000 feet AGL
scattered clouds at 4000 feet AGL
Weather: no significant weather forecast for this period

 AIRPORT MAP

 RUNWAY INFORMATION
Runway 05 Runway length 10000 ft Runway width 150 ft
Runway elevation 30 ft Runway displaced threshold 1000 ft Runway heading 60
Runway 23 Runway length 10000 ft Runway width 150 ft
Runway elevation 9 ft Runway displaced threshold 800 ft Runway heading 240
Runway 08 Runway length 3800 ft Runway width 100 ft
Runway elevation 6 ft Runway displaced threshold 1600 ft Runway heading 90
Runway 26 Runway length 3800 ft Runway width 100 ft
Runway elevation 5 ft Runway displaced threshold 0 ft Runway heading 270

 AIRPORT FREQUENCIES
Type A/D Name FALEOLO AP Frequency 126.9 MHZ
Type CTAF Name CTAF Frequency 122.9 MHZ
Type UNIC Name UNICOM Frequency 118.3 MHZ

 AIRPORT NEAR NAVIGATION AIDS


Neither the Department of the Air Force, nor any other component of the Department of Defense or Federal Government has approved, endorsed, or authorized this promotion, activity, or organization. Virtual United States Air Force organization is in no way affiliated with the Department of Defense, Department of the Air Force, or any other federal or government entity. Virtual United States Air Force is a group of flight simulation enthusiasts with the common interest of promoting enjoyment and cameraderie through the simulation of military operations and procedures utilizing several flight simulation platforms.

Copyright © vUSAF, LLC // 2018 All Rights Reserved